createdAt,value
2022-12-04T00:00:41.968Z,21.0200
2022-12-04T00:01:42.160Z,20.9600
2022-12-04T00:02:44.600Z,21.0100
2022-12-04T00:03:46.905Z,21.0100
2022-12-04T00:04:49.446Z,21.0300
2022-12-04T00:05:49.481Z,21.0900
2022-12-04T00:06:57.145Z,21.0700
2022-12-04T00:07:54.242Z,21.0000
2022-12-04T00:08:56.436Z,21.0000
2022-12-04T00:09:57.007Z,21.0200
2022-12-04T00:10:58.973Z,21.0000
2022-12-04T00:12:01.281Z,20.9700
2022-12-04T00:13:03.594Z,21.0100
2022-12-04T00:14:07.511Z,21.0500
2022-12-04T00:15:25.873Z,21.0200
2022-12-04T00:16:10.559Z,21.0200
2022-12-04T00:17:10.653Z,20.9600
2022-12-04T00:18:12.975Z,20.9400
2022-12-04T00:19:15.322Z,20.9500
2022-12-04T00:20:17.748Z,20.9400
2022-12-04T00:21:19.990Z,21.0200
2022-12-04T00:22:22.304Z,21.0300
2022-12-04T00:23:22.485Z,21.0300
2022-12-04T00:24:24.811Z,21.0800
2022-12-04T00:25:27.182Z,21.0100
2022-12-04T00:26:29.468Z,21.0500
2022-12-04T00:27:31.800Z,21.0500
2022-12-04T00:28:31.942Z,20.9900
2022-12-04T00:29:34.216Z,20.9400
2022-12-04T00:30:36.559Z,21.0100
2022-12-04T00:31:38.973Z,21.0300
2022-12-04T00:32:41.147Z,21.0100
2022-12-04T00:33:43.481Z,20.9800
2022-12-04T00:34:45.741Z,20.9800
2022-12-04T00:35:45.950Z,20.9900
2022-12-04T00:36:48.228Z,20.9800
2022-12-04T00:37:50.573Z,20.9500
2022-12-04T00:38:52.924Z,20.9400
2022-12-04T00:39:55.489Z,20.9600
2022-12-04T00:40:57.599Z,20.9800
2022-12-04T00:41:59.883Z,21.0000
2022-12-04T00:43:02.197Z,21.0000
2022-12-04T00:44:04.568Z,20.9900
2022-12-04T00:45:06.905Z,20.9900
2022-12-04T00:46:07.187Z,20.9900
2022-12-04T00:47:09.463Z,20.9800
2022-12-04T00:48:11.824Z,20.9800
2022-12-04T00:49:14.140Z,21.0800
2022-12-04T00:50:16.485Z,21.0900
2022-12-04T00:51:16.700Z,21.0300
2022-12-04T00:52:18.991Z,21.0100
2022-12-04T00:53:21.246Z,21.0000
2022-12-04T00:54:23.550Z,21.0200
2022-12-04T00:55:27.134Z,21.0200
2022-12-04T00:56:28.205Z,21.0000
2022-12-04T00:57:28.275Z,21.0200
2022-12-04T00:58:30.581Z,21.0000
2022-12-04T00:59:32.906Z,21.0100
2022-12-04T01:00:35.448Z,21.0100
2022-12-04T01:01:37.794Z,21.0400
2022-12-04T01:02:39.993Z,20.9700
2022-12-04T01:03:40.109Z,20.9000
2022-12-04T01:04:42.456Z,20.9100
2022-12-04T01:05:44.761Z,20.9500
2022-12-04T01:06:47.436Z,20.9900
2022-12-04T01:07:55.458Z,20.9900
2022-12-04T01:08:51.694Z,20.9800
2022-12-04T01:09:51.939Z,21.0100
2022-12-04T01:10:54.231Z,21.0400
2022-12-04T01:11:56.829Z,21.0300
2022-12-04T01:12:58.926Z,21.0400
2022-12-04T01:14:01.262Z,21.0100
2022-12-04T01:15:01.464Z,21.0100
2022-12-04T01:16:03.896Z,21.0000
2022-12-04T01:17:06.272Z,20.9500
2022-12-04T01:18:08.524Z,20.9500
2022-12-04T01:19:08.761Z,20.9100
2022-12-04T01:20:11.018Z,20.8800
2022-12-04T01:21:13.381Z,20.9300
2022-12-04T01:22:15.770Z,20.9700
2022-12-04T01:23:18.085Z,20.9600
2022-12-04T01:24:03.188Z,20.9800
2022-12-04T01:25:05.437Z,21.0000
2022-12-04T01:26:07.725Z,20.9400
2022-12-04T01:27:10.110Z,20.8900
2022-12-04T01:28:12.542Z,20.9400
2022-12-04T01:29:12.671Z,20.9500
2022-12-04T01:30:14.982Z,20.9200
2022-12-04T01:31:17.417Z,20.9600
2022-12-04T01:32:17.599Z,20.9700
2022-12-04T01:33:20.103Z,20.9800
2022-12-04T01:34:22.136Z,20.9400
2022-12-04T01:35:24.490Z,20.9000
2022-12-04T01:36:26.838Z,20.8900
2022-12-04T01:37:27.046Z,20.9200
2022-12-04T01:38:29.430Z,20.9100
2022-12-04T01:39:31.728Z,20.8700
2022-12-04T01:40:34.035Z,20.8800
2022-12-04T01:42:49.588Z,20.9300
2022-12-04T01:43:52.088Z,20.9700
2022-12-04T01:44:54.154Z,21.0000
2022-12-04T01:45:56.576Z,21.0500
2022-12-04T01:46:56.632Z,21.0300
2022-12-04T01:47:58.957Z,20.9800
2022-12-04T01:49:01.611Z,20.9700
2022-12-04T01:50:03.609Z,20.9700
2022-12-04T01:51:03.838Z,20.9600
2022-12-04T01:52:06.186Z,20.9300
2022-12-04T01:53:08.544Z,20.9300
2022-12-04T01:54:11.031Z,20.9600
2022-12-04T01:55:13.254Z,20.9600
2022-12-04T01:56:13.460Z,20.9800
2022-12-04T01:57:15.823Z,20.9500
2022-12-04T01:58:18.132Z,20.9300
2022-12-04T01:59:20.664Z,20.9500
2022-12-04T02:00:22.769Z,20.9400
2022-12-04T02:01:25.129Z,20.9500
2022-12-04T02:02:25.410Z,20.9000
2022-12-04T02:03:27.532Z,20.8900
2022-12-04T02:04:29.943Z,20.9300
2022-12-04T02:05:32.064Z,20.9600
2022-12-04T02:06:34.329Z,20.9200
2022-12-04T02:07:36.607Z,20.9600
2022-12-04T02:08:38.840Z,20.9300
2022-12-04T02:09:41.273Z,20.9100
2022-12-04T02:10:41.268Z,20.9100
2022-12-04T02:11:43.593Z,20.9500
2022-12-04T02:12:45.939Z,21.0100
2022-12-04T02:13:48.283Z,21.0000
2022-12-04T02:14:50.669Z,21.0200
2022-12-04T02:15:50.802Z,20.9700
2022-12-04T02:16:53.171Z,20.9300
2022-12-04T02:17:55.442Z,20.9200
2022-12-04T02:18:57.763Z,20.9600
2022-12-04T02:20:00.343Z,21.0300
2022-12-04T02:21:00.249Z,21.0000
2022-12-04T02:22:02.524Z,20.9800
2022-12-04T02:23:04.823Z,20.9500
2022-12-04T02:24:07.154Z,21.0100
2022-12-04T02:25:09.551Z,20.9900
2022-12-04T02:26:11.876Z,20.9300
2022-12-04T02:27:12.085Z,20.9300
2022-12-04T02:28:14.473Z,20.9000
2022-12-04T02:29:16.851Z,20.8900
2022-12-04T02:30:19.489Z,20.9300
2022-12-04T02:31:19.545Z,20.8700
2022-12-04T02:32:21.895Z,20.9000
2022-12-04T02:33:24.265Z,20.9200
2022-12-04T02:34:26.662Z,20.9300
2022-12-04T02:35:26.923Z,20.9300
2022-12-04T02:36:29.253Z,20.9700
2022-12-04T02:37:31.625Z,20.9500
2022-12-04T02:38:34.028Z,20.9400
2022-12-04T02:39:36.401Z,20.8800
2022-12-04T02:40:36.769Z,20.8500
2022-12-04T02:41:39.004Z,20.8700
2022-12-04T02:42:41.398Z,20.9300
2022-12-04T02:43:43.783Z,20.9600
2022-12-04T02:44:44.018Z,20.9300
2022-12-04T02:45:46.510Z,20.9000
2022-12-04T02:46:48.727Z,20.9200
2022-12-04T02:47:51.056Z,20.9400
2022-12-04T02:48:53.402Z,20.9100
2022-12-04T02:49:53.950Z,20.9100
2022-12-04T02:50:55.997Z,20.9500
2022-12-04T02:51:58.244Z,20.9100
2022-12-04T02:53:00.629Z,20.9400
2022-12-04T02:54:00.857Z,20.9600
2022-12-04T02:55:08.315Z,20.9700
2022-12-04T02:56:03.501Z,20.9200
2022-12-04T02:57:05.838Z,20.8600
2022-12-04T02:58:08.211Z,20.8800
2022-12-04T02:59:10.604Z,20.8000
2022-12-04T03:00:12.997Z,20.8200
2022-12-04T03:01:13.370Z,20.8700
2022-12-04T03:03:35.322Z,20.8400
2022-12-04T03:04:37.595Z,20.8300
2022-12-04T03:05:39.939Z,20.8800
2022-12-04T03:06:42.319Z,20.9100
2022-12-04T03:07:44.680Z,20.8800
2022-12-04T03:08:44.868Z,20.9100
2022-12-04T03:09:47.225Z,20.9400
2022-12-04T03:10:49.605Z,20.9300
2022-12-04T03:11:50.127Z,20.8800
2022-12-04T03:12:52.170Z,20.8400
2022-12-04T03:13:54.475Z,20.8400
2022-12-04T03:14:56.815Z,20.8900
2022-12-04T03:15:59.151Z,20.9200
2022-12-04T03:17:01.779Z,20.9500
2022-12-04T03:18:01.608Z,20.8900
2022-12-04T03:19:03.943Z,20.9300
2022-12-04T03:20:06.286Z,20.8700
2022-12-04T03:21:08.659Z,20.8900
2022-12-04T03:22:11.294Z,20.9100
2022-12-04T03:23:11.232Z,20.9000
2022-12-04T03:24:13.586Z,20.9500
2022-12-04T03:25:14.820Z,20.8400
2022-12-04T03:26:17.164Z,20.8000
2022-12-04T03:27:17.665Z,20.7500
2022-12-04T03:28:19.729Z,20.6700
2022-12-04T03:29:22.096Z,20.7100
2022-12-04T03:30:22.276Z,20.6900
2022-12-04T03:31:24.647Z,20.6700
2022-12-04T03:32:27.041Z,20.7300
2022-12-04T03:33:29.289Z,20.7100
2022-12-04T03:34:31.628Z,20.6700
2022-12-04T03:35:33.991Z,20.6200
2022-12-04T03:36:34.179Z,20.6000
2022-12-04T03:37:36.580Z,20.6800
2022-12-04T03:38:38.848Z,20.6700
2022-12-04T03:39:41.180Z,20.6700
2022-12-04T03:40:43.488Z,20.6200
2022-12-04T03:41:49.786Z,20.6300
2022-12-04T03:42:48.164Z,20.6600
2022-12-04T03:43:50.503Z,20.6800
2022-12-04T03:44:52.802Z,20.6900
2022-12-04T03:45:55.246Z,20.6300
2022-12-04T03:46:57.489Z,20.6000
2022-12-04T03:47:59.852Z,20.6300
2022-12-04T03:49:02.096Z,20.5700
2022-12-04T03:50:04.426Z,20.5000
2022-12-04T03:51:06.720Z,20.5800
2022-12-04T03:52:09.042Z,20.5900
2022-12-04T03:53:11.418Z,20.6100
2022-12-04T03:54:13.693Z,20.6000
2022-12-04T03:55:16.024Z,20.6000
2022-12-04T03:56:18.351Z,20.6000
2022-12-04T03:57:20.677Z,20.6400
2022-12-04T03:58:20.940Z,20.6600
2022-12-04T03:59:23.293Z,20.6400
2022-12-04T04:00:25.696Z,20.6500
2022-12-04T04:01:26.006Z,20.6500
2022-12-04T04:02:28.445Z,20.6200
2022-12-04T04:03:30.875Z,20.6500
2022-12-04T04:04:30.889Z,20.5800
2022-12-04T04:05:33.215Z,20.6300
2022-12-04T04:06:35.551Z,20.6300
2022-12-04T04:07:37.943Z,20.6600
2022-12-04T04:08:40.239Z,20.6400
2022-12-04T04:09:42.537Z,20.6500
2022-12-04T04:10:44.841Z,20.6500
2022-12-04T04:11:47.137Z,20.6600
2022-12-04T04:12:49.425Z,20.6400
2022-12-04T04:13:51.760Z,20.6100
2022-12-04T04:14:54.063Z,20.6100
2022-12-04T04:15:56.366Z,20.6300
2022-12-04T04:16:58.617Z,20.6600
2022-12-04T04:17:58.799Z,20.6500
2022-12-04T04:19:01.419Z,20.6700
2022-12-04T04:20:03.517Z,20.6600
2022-12-04T04:21:03.705Z,20.6500
2022-12-04T04:22:06.020Z,20.6000
2022-12-04T04:23:08.357Z,20.6700
2022-12-04T04:24:10.841Z,20.6800
2022-12-04T04:25:13.089Z,20.7300
2022-12-04T04:26:15.479Z,20.6800
2022-12-04T04:27:15.731Z,20.6300
2022-12-04T04:28:18.111Z,20.6000
2022-12-04T04:29:20.492Z,20.6000
2022-12-04T04:30:20.735Z,20.6500
2022-12-04T04:31:23.247Z,20.6700
2022-12-04T04:32:25.482Z,20.6200
2022-12-04T04:33:25.722Z,20.5500
2022-12-04T04:34:28.304Z,20.5400
2022-12-04T04:35:30.466Z,20.5600
2022-12-04T04:36:32.816Z,20.5600
2022-12-04T04:37:35.208Z,20.5900
2022-12-04T04:38:35.445Z,20.6400
2022-12-04T04:39:37.904Z,20.6200
2022-12-04T04:40:40.244Z,20.6400
2022-12-04T04:41:40.490Z,20.5800
2022-12-04T04:42:42.944Z,20.5300
2022-12-04T04:43:45.299Z,20.5800
2022-12-04T04:44:45.826Z,20.6300
2022-12-04T04:45:47.995Z,20.6500
2022-12-04T04:46:50.377Z,20.6100
2022-12-04T04:47:52.763Z,20.5800
2022-12-04T04:48:55.124Z,20.5400
2022-12-04T04:49:56.040Z,20.5600
2022-12-04T04:50:57.802Z,20.5400
2022-12-04T04:52:00.219Z,20.6300
2022-12-04T04:53:00.484Z,20.6600
2022-12-04T04:54:02.961Z,20.7000
2022-12-04T04:55:05.339Z,20.6700
2022-12-04T04:56:07.718Z,20.6300
2022-12-04T04:57:10.055Z,20.5500
2022-12-04T04:58:10.316Z,20.5200
2022-12-04T04:59:12.608Z,20.5200
2022-12-04T05:00:15.104Z,20.5300
2022-12-04T05:01:15.311Z,20.5400
2022-12-04T05:02:17.566Z,20.5700
2022-12-04T05:03:19.942Z,20.6100
2022-12-04T05:04:22.291Z,20.5500
2022-12-04T05:05:24.874Z,20.5700
2022-12-04T05:06:26.953Z,20.6000
2022-12-04T05:07:27.168Z,20.6300
2022-12-04T05:08:29.382Z,20.6700
2022-12-04T05:09:34.602Z,20.6400
2022-12-04T05:10:34.399Z,20.6800
2022-12-04T05:11:36.404Z,20.6200
2022-12-04T05:12:38.796Z,20.5700
2022-12-04T05:13:39.028Z,20.5700
2022-12-04T05:14:41.466Z,20.5600
2022-12-04T05:15:43.872Z,20.5900
2022-12-04T05:16:44.001Z,20.6000
2022-12-04T05:17:46.347Z,20.5500
2022-12-04T05:18:48.712Z,20.5100
2022-12-04T05:19:51.078Z,20.5900
2022-12-04T05:22:15.121Z,20.6900
2022-12-04T05:23:15.172Z,20.7500
2022-12-04T05:24:17.438Z,20.7500
2022-12-04T05:25:19.744Z,20.7800
2022-12-04T05:26:22.044Z,20.8000
2022-12-04T05:27:24.423Z,20.7700
2022-12-04T05:28:26.701Z,20.8100
2022-12-04T05:29:30.398Z,20.7800
2022-12-04T05:30:29.215Z,20.8000
2022-12-04T05:31:31.703Z,20.8200
2022-12-04T05:32:34.063Z,20.7700
2022-12-04T05:33:36.239Z,20.8100
2022-12-04T05:34:38.496Z,20.8600
2022-12-04T05:35:38.685Z,20.8300
2022-12-04T05:36:41.038Z,20.8200
2022-12-04T05:37:43.651Z,20.8600
2022-12-04T05:38:45.734Z,20.7400
2022-12-04T05:39:48.107Z,20.7200
2022-12-04T05:40:48.325Z,20.6500
2022-12-04T05:41:50.698Z,20.7300
2022-12-04T05:42:53.075Z,20.7300
2022-12-04T05:43:55.357Z,20.7700
2022-12-04T05:44:57.670Z,20.8400
2022-12-04T05:45:57.857Z,20.8600
2022-12-04T05:47:00.315Z,20.8200
2022-12-04T05:48:02.654Z,20.7600
2022-12-04T05:49:04.858Z,20.7300
2022-12-04T05:50:07.204Z,20.8100
2022-12-04T05:51:07.364Z,20.8700
2022-12-04T05:52:09.733Z,20.8800
2022-12-04T05:53:12.163Z,20.9100
2022-12-04T05:54:14.443Z,20.9500
2022-12-04T05:55:16.820Z,20.9400
2022-12-04T05:56:17.060Z,20.9300
2022-12-04T05:57:19.458Z,20.8500
2022-12-04T05:58:21.885Z,20.7800
2022-12-04T05:59:24.199Z,20.8300
2022-12-04T06:00:24.417Z,20.8300
2022-12-04T06:01:26.739Z,20.8100
2022-12-04T06:02:29.233Z,20.7400
2022-12-04T06:03:31.573Z,20.7700
2022-12-04T06:04:31.684Z,20.8200
2022-12-04T06:05:33.953Z,20.8100
2022-12-04T06:06:36.228Z,20.8000
2022-12-04T06:07:38.577Z,20.8200
2022-12-04T06:08:40.939Z,20.8200
2022-12-04T06:09:43.179Z,20.8200
2022-12-04T06:10:45.510Z,20.8300
2022-12-04T06:11:45.677Z,20.8000
2022-12-04T06:12:48.050Z,20.8500
2022-12-04T06:13:50.496Z,20.8100
2022-12-04T06:14:52.844Z,20.7800
2022-12-04T06:15:53.052Z,20.7300
2022-12-04T06:16:55.549Z,20.7100
2022-12-04T06:17:57.820Z,20.7100
2022-12-04T06:19:00.351Z,20.7400
2022-12-04T06:20:07.952Z,20.7800
2022-12-04T06:21:02.954Z,20.7800
2022-12-04T06:22:05.202Z,20.8500
2022-12-04T06:23:07.576Z,20.8700
2022-12-04T06:24:10.113Z,20.8800
2022-12-04T06:25:10.057Z,20.8700
2022-12-04T06:26:10.236Z,20.8400
2022-12-04T06:27:27.399Z,20.8300
2022-12-04T06:28:14.975Z,20.8000
2022-12-04T06:29:17.558Z,20.8100
2022-12-04T06:30:17.552Z,20.8400
2022-12-04T06:31:19.942Z,20.7600
2022-12-04T06:32:22.477Z,20.8200
2022-12-04T06:33:24.541Z,20.8300
2022-12-04T06:34:27.031Z,20.8300
2022-12-04T06:35:29.200Z,20.8600
2022-12-04T06:36:31.498Z,20.9100
2022-12-04T06:37:33.872Z,20.9600
2022-12-04T06:38:36.159Z,21.0100
2022-12-04T06:39:38.588Z,20.9600
2022-12-04T06:40:38.742Z,20.8900
2022-12-04T06:41:41.130Z,20.8400
2022-12-04T06:42:43.510Z,20.8600
2022-12-04T06:43:45.904Z,20.8600
2022-12-04T06:44:48.396Z,20.8900
2022-12-04T06:45:48.589Z,20.8600
2022-12-04T06:46:50.863Z,20.8600
2022-12-04T06:47:53.235Z,20.8800
2022-12-04T06:48:55.591Z,20.8400
2022-12-04T06:49:56.460Z,20.8300
2022-12-04T06:50:58.171Z,20.8900
2022-12-04T06:52:00.528Z,20.9400
2022-12-04T06:53:08.080Z,20.9500
2022-12-04T06:54:05.237Z,20.8600
2022-12-04T06:55:05.679Z,20.7900
2022-12-04T06:56:07.812Z,20.8100
2022-12-04T06:57:10.183Z,20.9000
2022-12-04T06:58:12.536Z,20.8400
2022-12-04T06:59:14.918Z,20.8300
2022-12-04T07:00:15.603Z,20.8800
2022-12-04T07:01:17.645Z,20.8500
2022-12-04T07:02:20.027Z,20.8900
2022-12-04T07:03:22.324Z,20.8800
2022-12-04T07:04:22.561Z,20.8700
2022-12-04T07:05:25.205Z,20.8600
2022-12-04T07:06:27.295Z,20.8800
2022-12-04T07:07:29.708Z,20.9300
2022-12-04T07:08:29.891Z,20.9500
2022-12-04T07:09:32.273Z,20.9300
2022-12-04T07:10:34.728Z,20.9600
2022-12-04T07:11:37.082Z,20.9800
2022-12-04T07:12:37.322Z,20.9300
2022-12-04T07:13:39.657Z,20.9500
2022-12-04T07:14:41.992Z,20.9900
2022-12-04T07:15:44.376Z,20.9600
2022-12-04T07:16:44.685Z,20.9900
2022-12-04T07:17:46.970Z,20.9900
2022-12-04T07:18:49.362Z,20.9700
2022-12-04T07:19:51.714Z,20.9600
2022-12-04T07:20:52.075Z,20.9600
2022-12-04T07:21:54.314Z,20.9300
2022-12-04T07:22:56.709Z,20.9300
2022-12-04T07:23:59.082Z,20.9600
2022-12-04T07:24:59.325Z,20.9600
2022-12-04T07:26:01.858Z,21.0100
2022-12-04T07:27:04.042Z,21.0200
2022-12-04T07:28:06.360Z,21.0300
2022-12-04T07:29:08.700Z,21.0600
2022-12-04T07:30:15.356Z,21.0200
2022-12-04T07:31:11.789Z,20.9900
2022-12-04T07:32:13.779Z,20.9900
2022-12-04T07:33:16.061Z,21.0200
2022-12-04T07:34:18.423Z,21.0300
2022-12-04T07:35:18.647Z,21.0300
2022-12-04T07:36:21.129Z,21.0200
2022-12-04T07:37:23.369Z,21.0200
2022-12-04T07:38:25.726Z,21.0200
2022-12-04T07:39:25.925Z,21.0800
2022-12-04T07:40:28.289Z,21.0100
2022-12-04T07:41:30.718Z,21.0000
2022-12-04T07:42:33.015Z,21.0100
2022-12-04T07:43:35.383Z,21.0300
2022-12-04T07:44:35.581Z,21.0100
2022-12-04T07:45:38.012Z,20.9800
2022-12-04T07:46:40.306Z,21.0000
2022-12-04T07:47:42.592Z,20.9800
2022-12-04T07:48:44.898Z,21.0400
2022-12-04T07:49:47.258Z,21.0600
2022-12-04T07:50:49.626Z,21.1000
2022-12-04T07:51:52.273Z,21.1100
2022-12-04T07:52:54.378Z,21.1100
2022-12-04T07:53:54.619Z,21.1300
2022-12-04T07:54:57.007Z,21.1300
2022-12-04T07:55:59.393Z,21.1600
2022-12-04T07:57:01.830Z,21.1300
2022-12-04T07:58:04.110Z,21.1100
2022-12-04T07:59:04.327Z,21.0900
2022-12-04T08:00:06.691Z,20.9400
2022-12-04T08:01:09.101Z,20.7200
2022-12-04T08:02:11.572Z,20.6600
2022-12-04T08:03:11.621Z,20.5800
2022-12-04T08:04:14.011Z,20.5000
2022-12-04T08:05:16.356Z,20.2900
2022-12-04T08:06:18.736Z,20.1600
2022-12-04T08:07:21.207Z,20.0600
2022-12-04T08:08:21.389Z,20.0500
2022-12-04T08:09:23.655Z,19.9400
2022-12-04T08:10:26.003Z,19.9400
2022-12-04T08:11:28.371Z,19.9600
2022-12-04T08:12:30.965Z,20.1200
2022-12-04T08:13:30.970Z,20.2400
2022-12-04T08:14:33.335Z,20.3900
2022-12-04T08:15:35.703Z,20.4900
2022-12-04T08:16:38.236Z,20.5900
2022-12-04T08:17:38.620Z,20.6700
2022-12-04T08:18:40.453Z,20.7200
2022-12-04T08:19:42.753Z,20.7400
2022-12-04T08:20:45.073Z,20.7600
2022-12-04T08:21:47.422Z,20.8100
2022-12-04T08:22:49.810Z,20.8100
2022-12-04T08:23:49.953Z,20.8500
2022-12-04T08:24:52.303Z,20.8900
2022-12-04T08:25:54.678Z,20.9000
2022-12-04T08:26:56.952Z,20.9500
2022-12-04T08:27:59.355Z,20.9700
2022-12-04T08:28:59.497Z,20.9300
2022-12-04T08:30:01.845Z,20.9200
2022-12-04T08:31:04.266Z,20.9100
2022-12-04T08:32:06.581Z,20.9800
2022-12-04T08:33:09.074Z,20.9200
2022-12-04T08:34:09.155Z,20.8300
2022-12-04T08:35:11.475Z,20.8500
2022-12-04T08:36:13.800Z,20.8000
2022-12-04T08:37:16.089Z,20.7900
2022-12-04T08:38:18.430Z,20.8100
2022-12-04T08:39:20.712Z,20.8200
2022-12-04T08:40:20.913Z,20.8000
2022-12-04T08:41:24.139Z,20.8100
2022-12-04T08:42:25.632Z,20.7400
2022-12-04T08:43:28.201Z,20.7800
2022-12-04T08:44:28.212Z,20.8600
2022-12-04T08:45:30.571Z,20.9200
2022-12-04T08:46:33.092Z,20.9200
2022-12-04T08:47:35.298Z,20.9300
2022-12-04T08:48:37.905Z,20.8800
2022-12-04T08:49:37.872Z,20.8200
2022-12-04T08:50:40.278Z,20.7300
2022-12-04T08:51:42.672Z,20.7300
2022-12-04T08:52:45.081Z,20.7500
2022-12-04T08:53:45.349Z,20.7800
2022-12-04T08:54:47.721Z,20.8300
2022-12-04T08:55:50.114Z,20.8100
2022-12-04T08:56:52.495Z,20.7700
2022-12-04T08:57:52.718Z,20.7800
2022-12-04T08:58:55.335Z,20.8100
2022-12-04T08:59:57.603Z,20.8300
2022-12-04T09:00:59.710Z,20.8200
2022-12-04T09:02:02.079Z,20.8100
2022-12-04T09:03:02.171Z,20.8100
2022-12-04T09:04:04.604Z,20.7600
2022-12-04T09:05:06.908Z,20.7300
2022-12-04T09:06:09.293Z,20.7900
2022-12-04T09:07:09.542Z,20.7800
2022-12-04T09:08:12.048Z,20.7500
2022-12-04T09:09:14.390Z,20.7600
2022-12-04T09:10:16.765Z,20.7700
2022-12-04T09:11:17.016Z,20.7400
2022-12-04T09:12:19.423Z,20.7700
2022-12-04T09:13:21.825Z,20.8000
2022-12-04T09:14:24.216Z,20.7300
2022-12-04T09:15:24.323Z,20.7200
2022-12-04T09:16:26.715Z,20.6900
2022-12-04T09:17:28.876Z,20.6700
2022-12-04T09:18:31.184Z,20.6700
2022-12-04T09:19:33.550Z,20.7000
2022-12-04T09:20:35.829Z,20.7300
2022-12-04T09:21:38.074Z,20.7500
2022-12-04T09:23:02.307Z,20.7700
2022-12-04T09:23:40.418Z,20.7700
2022-12-04T09:24:42.717Z,20.7900
2022-12-04T09:25:43.997Z,20.6600
2022-12-04T09:26:46.104Z,20.6300
2022-12-04T09:27:46.296Z,20.6000
2022-12-04T09:28:48.596Z,20.6300
2022-12-04T09:29:50.987Z,20.5800
2022-12-04T09:30:53.297Z,20.5800
2022-12-04T09:31:55.613Z,20.6100
2022-12-04T09:32:57.943Z,20.6000
2022-12-04T09:34:00.277Z,20.5600
2022-12-04T09:35:02.781Z,20.5200
2022-12-04T09:36:04.921Z,20.4900
2022-12-04T09:37:07.227Z,20.4800
2022-12-04T09:38:46.182Z,20.5800
2022-12-04T09:39:48.364Z,20.7100
2022-12-04T09:40:50.686Z,20.7400
2022-12-04T09:41:55.068Z,20.7700
2022-12-04T09:42:50.909Z,20.7500
2022-12-04T09:43:53.246Z,20.7500
2022-12-04T09:44:53.408Z,20.7700
2022-12-04T09:45:55.842Z,20.8100
2022-12-04T09:46:58.092Z,20.8600
2022-12-04T09:47:53.873Z,20.8100
2022-12-04T09:48:56.088Z,20.7800
2022-12-04T09:49:56.553Z,20.8100
2022-12-04T09:50:58.669Z,20.8200
2022-12-04T09:52:00.868Z,20.7800
2022-12-04T09:53:03.175Z,20.8000
2022-12-04T09:54:05.533Z,20.8800
2022-12-04T09:55:07.834Z,20.8500
2022-12-04T09:56:08.206Z,20.7700
2022-12-04T09:57:10.395Z,20.7400
2022-12-04T09:58:12.776Z,20.7800
2022-12-04T09:59:15.144Z,20.8200
2022-12-04T10:00:17.491Z,20.8300
2022-12-04T10:01:17.918Z,20.8200
2022-12-04T10:02:20.048Z,20.8000
2022-12-04T10:03:22.428Z,20.7900
2022-12-04T10:04:24.690Z,20.8000
2022-12-04T10:05:26.849Z,20.8400
2022-12-04T10:06:29.522Z,20.7600
2022-12-04T10:07:29.336Z,20.1000
2022-12-04T10:08:31.671Z,20.0700
2022-12-04T10:09:34.012Z,20.3600
2022-12-04T10:10:36.366Z,20.5200
2022-12-04T10:11:38.802Z,20.6100
2022-12-04T10:12:40.972Z,20.7400
2022-12-04T10:13:41.158Z,20.8100
2022-12-04T10:14:43.492Z,20.8100
2022-12-04T10:15:45.875Z,20.8400
2022-12-04T10:16:48.456Z,20.7900
2022-12-04T10:17:50.457Z,20.7300
2022-12-04T10:18:52.783Z,20.8100
2022-12-04T10:19:53.203Z,20.8900
2022-12-04T10:20:55.289Z,20.9600
2022-12-04T10:21:57.868Z,21.0000
2022-12-04T10:22:59.940Z,21.0000
2022-12-04T10:24:00.104Z,21.0400
2022-12-04T10:25:02.427Z,21.0800
2022-12-04T10:26:04.744Z,21.1500
2022-12-04T10:27:07.195Z,21.0500
2022-12-04T10:28:09.319Z,21.0400
2022-12-04T10:29:11.591Z,21.0800
2022-12-04T10:30:13.912Z,21.0500
2022-12-04T10:31:14.267Z,21.0000
2022-12-04T10:32:16.493Z,20.9900
2022-12-04T10:33:18.768Z,21.0400
2022-12-04T10:34:21.073Z,21.0100
2022-12-04T10:35:23.428Z,21.0900
2022-12-04T10:36:23.559Z,21.0400
2022-12-04T10:37:26.077Z,21.0600
2022-12-04T10:38:28.275Z,21.0700
2022-12-04T10:39:30.604Z,21.0700
2022-12-04T10:40:32.892Z,21.0900
2022-12-04T10:41:35.213Z,21.0900
2022-12-04T10:42:37.626Z,21.1200
2022-12-04T10:43:37.635Z,21.1500
2022-12-04T10:44:39.927Z,21.2000
2022-12-04T10:45:42.212Z,21.2400
2022-12-04T10:46:46.303Z,21.2600
2022-12-04T10:47:46.927Z,21.2200
2022-12-04T10:48:47.026Z,21.1800
2022-12-04T10:49:49.356Z,21.1700
2022-12-04T10:50:51.685Z,21.2200
2022-12-04T10:51:54.019Z,21.2800
2022-12-04T10:52:56.357Z,21.3000
2022-12-04T10:53:58.655Z,21.2600
2022-12-04T10:54:58.833Z,21.2000
2022-12-04T10:56:01.180Z,21.2200
2022-12-04T10:57:03.517Z,21.2000
2022-12-04T10:58:04.875Z,21.1100
2022-12-04T10:59:07.073Z,21.0700
2022-12-04T11:00:08.365Z,21.0900
2022-12-04T11:01:08.541Z,21.0700
2022-12-04T11:02:10.912Z,21.1200
2022-12-04T11:03:13.385Z,21.0700
2022-12-04T11:04:15.442Z,21.1200
2022-12-04T11:05:17.708Z,21.1700
2022-12-04T11:06:19.991Z,21.2100
2022-12-04T11:07:22.306Z,21.2300
2022-12-04T11:08:22.762Z,21.2400
2022-12-04T11:09:24.772Z,21.1400
2022-12-04T11:10:27.131Z,21.1600
2022-12-04T11:11:29.444Z,21.0800
2022-12-04T11:12:31.753Z,21.0800
2022-12-04T11:13:34.334Z,20.9500
2022-12-04T11:14:34.257Z,20.9500
2022-12-04T11:15:36.600Z,20.9200
2022-12-04T11:16:39.001Z,20.8900
2022-12-04T11:17:39.088Z,20.8900
2022-12-04T11:18:41.511Z,20.9100
2022-12-04T11:19:43.722Z,20.8900
2022-12-04T11:20:47.100Z,20.8900
2022-12-04T11:21:48.287Z,20.8500
2022-12-04T11:22:50.629Z,20.8400
2022-12-04T11:23:53.000Z,20.8800
2022-12-04T11:24:55.248Z,20.9800
2022-12-04T11:25:58.284Z,20.9700
2022-12-04T11:26:57.784Z,20.9600
2022-12-04T11:28:00.117Z,20.9600
2022-12-04T11:29:02.562Z,20.9900
2022-12-04T11:30:04.749Z,20.9800
2022-12-04T11:31:04.915Z,20.9400
2022-12-04T11:33:37.601Z,20.8500
2022-12-04T11:34:40.059Z,20.8400
2022-12-04T11:35:42.130Z,20.9000
2022-12-04T11:36:44.420Z,20.9700
2022-12-04T11:37:45.576Z,20.9200
2022-12-04T11:38:46.840Z,20.9000
2022-12-04T11:39:49.422Z,20.9300
2022-12-04T11:40:51.420Z,20.9800
2022-12-04T11:41:53.717Z,21.0500
2022-12-04T11:42:56.004Z,21.0100
2022-12-04T11:44:00.590Z,21.0200
2022-12-04T11:44:58.721Z,20.9700
2022-12-04T11:46:00.715Z,20.9200
2022-12-04T11:47:03.143Z,20.9000
2022-12-04T11:48:05.328Z,20.9000
2022-12-04T11:49:07.612Z,20.9100
2022-12-04T11:50:09.955Z,20.9100
2022-12-04T11:51:12.183Z,20.9000
2022-12-04T11:52:12.358Z,20.9200
2022-12-04T11:53:14.705Z,20.9800
2022-12-04T11:54:17.134Z,20.9900
2022-12-04T11:55:23.900Z,20.9300
2022-12-04T11:56:21.715Z,20.9000
2022-12-04T11:57:21.910Z,20.9100
2022-12-04T11:58:24.242Z,20.9500
2022-12-04T11:59:26.590Z,20.9600
2022-12-04T12:00:29.043Z,20.9800
2022-12-04T12:01:31.353Z,20.9500
2022-12-04T12:02:33.704Z,21.0100
2022-12-04T12:03:33.979Z,20.9900
2022-12-04T12:04:36.127Z,20.9400
2022-12-04T12:05:38.696Z,20.9800
2022-12-04T12:06:40.808Z,21.0400
2022-12-04T12:07:43.190Z,21.1500
2022-12-04T12:08:45.477Z,21.1900
2022-12-04T12:09:47.813Z,21.1200
2022-12-04T12:10:50.284Z,21.1800
2022-12-04T12:11:52.488Z,21.2300
2022-12-04T12:12:54.821Z,21.1600
2022-12-04T12:13:48.576Z,21.1900
2022-12-04T12:14:50.883Z,21.2100
2022-12-04T12:15:53.430Z,21.2700
2022-12-04T12:16:55.652Z,21.2900
2022-12-04T12:17:55.883Z,21.2800
2022-12-04T12:18:58.256Z,21.2800
2022-12-04T12:20:00.640Z,21.2200
2022-12-04T12:21:04.583Z,21.1400
2022-12-04T12:22:05.612Z,21.1200
2022-12-04T12:23:05.649Z,21.0600
2022-12-04T12:24:08.036Z,21.1100
2022-12-04T12:25:10.438Z,21.1100
2022-12-04T12:26:10.956Z,21.1200
2022-12-04T12:27:13.058Z,21.1300
2022-12-04T12:28:15.415Z,21.0800
2022-12-04T12:29:17.775Z,21.1100
2022-12-04T12:30:20.111Z,21.1400
2022-12-04T12:31:20.375Z,21.1200
2022-12-04T12:32:22.639Z,21.2000
2022-12-04T12:33:24.993Z,21.1500
2022-12-04T12:33:55.537Z,21.1500